Time;durP1;ratioP1;P1;durP2;ratioP2;P2;SDS_P1;SDS_P2;PMS_P1;PMS_P2;Temp;Humidity;BMP_temperature;BMP_pressure;BME280_temperature;BME280_humidity;BME280_pressure;Samples;Min_cycle;Max_cycle;Signal;HPM_P1;HPM_P2
2023/09/18 00:01:52;;;;;;;40.35;21.20;;;;;;;-147.65;100.00;57646.63;10464020;28;20132;-79
2023/09/18 00:06:53;;;;;;;31.25;18.80;;;;;;;-147.65;100.00;57646.63;10465515;28;20055;-78
2023/09/18 00:11:53;;;;;;;39.78;19.45;;;;;;;-147.65;100.00;57646.63;10461706;28;20037;-79
2023/09/18 00:16:54;;;;;;;35.53;20.58;;;;;;;-147.65;100.00;57646.63;10462927;28;20411;-78
2023/09/18 00:21:54;;;;;;;23.83;17.73;;;;;;;-147.65;100.00;57646.63;10460861;28;20041;-79
2023/09/18 00:26:55;;;;;;;31.42;20.85;;;;;;;-147.65;100.00;57646.63;10463211;28;20579;-79
2023/09/18 00:31:55;;;;;;;30.08;19.95;;;;;;;-147.65;100.00;57646.63;10458354;28;20512;-79
2023/09/18 00:36:56;;;;;;;31.00;20.48;;;;;;;-147.65;100.00;57646.63;10457518;28;20170;-78
2023/09/18 00:41:56;;;;;;;26.02;18.77;;;;;;;-147.65;100.00;57646.63;10468523;28;20066;-78
2023/09/18 00:46:57;;;;;;;29.15;19.33;;;;;;;-147.65;100.00;57646.63;10480837;28;20032;-78
2023/09/18 00:51:58;;;;;;;29.20;19.02;;;;;;;-147.65;100.00;57646.63;10436446;28;20140;-79
2023/09/18 00:56:58;;;;;;;30.20;17.67;;;;;;;-147.65;100.00;57646.63;10465746;28;20065;-78
2023/09/18 01:01:59;;;;;;;30.98;19.65;;;;;;;-147.65;100.00;57646.63;10393006;28;20041;-78
2023/09/18 01:07:03;;;;;;;33.60;19.15;;;;;;;-147.65;100.00;57646.63;10407506;28;20383;-79
2023/09/18 01:12:28;;;;;;;32.63;19.10;;;;;;;-147.65;100.00;57646.63;10395634;28;20584;-78
2023/09/18 01:17:29;;;;;;;28.85;19.02;;;;;;;-147.65;100.00;57646.63;10433102;28;20469;-78
2023/09/18 01:22:30;;;;;;;31.27;17.90;;;;;;;-147.65;100.00;57646.63;10441012;28;20033;-79
2023/09/18 01:27:31;;;;;;;29.87;19.20;;;;;;;-147.65;100.00;57646.63;10469864;28;20048;-78
2023/09/18 01:32:32;;;;;;;27.85;19.50;;;;;;;-147.65;100.00;57646.63;10427993;28;20469;-78
2023/09/18 01:37:32;;;;;;;32.80;19.23;;;;;;;-147.65;100.00;57646.63;10461204;28;20045;-79
2023/09/18 01:42:34;;;;;;;25.65;16.63;;;;;;;-147.65;100.00;57646.63;10417693;28;20037;-79
2023/09/18 01:47:35;;;;;;;30.70;18.87;;;;;;;-147.65;100.00;57646.63;10470039;28;20099;-79
2023/09/18 01:52:35;;;;;;;37.28;17.25;;;;;;;-147.65;100.00;57646.63;10406266;28;20033;-79
2023/09/18 01:57:36;;;;;;;32.05;17.13;;;;;;;-147.65;100.00;57646.63;10439778;28;20132;-78
2023/09/18 02:02:37;;;;;;;38.85;19.38;;;;;;;-147.65;100.00;57646.63;10427016;28;20037;-79
2023/09/18 02:07:37;;;;;;;30.92;17.13;;;;;;;-147.65;100.00;57646.63;10441353;28;20033;-79
2023/09/18 02:12:39;;;;;;;27.58;18.58;;;;;;;-147.65;100.00;57646.63;10442565;28;20127;-79
2023/09/18 02:17:39;;;;;;;33.22;15.75;;;;;;;-147.65;100.00;57646.63;10476060;28;20433;-79
2023/09/18 02:22:40;;;;;;;26.92;16.42;;;;;;;-147.65;100.00;57646.63;10469022;28;20048;-79
2023/09/18 02:27:40;;;;;;;28.25;16.02;;;;;;;-147.65;100.00;57646.63;10462953;28;20039;-79
2023/09/18 02:32:41;;;;;;;36.30;19.35;;;;;;;-147.65;100.00;57646.63;10505445;28;20045;-79
2023/09/18 02:37:42;;;;;;;28.07;18.13;;;;;;;-147.65;100.00;57646.63;10467023;28;20037;-79
2023/09/18 02:42:43;;;;;;;28.73;16.70;;;;;;;-147.65;100.00;57646.63;10473503;28;20112;-78
2023/09/18 02:47:44;;;;;;;23.88;15.07;;;;;;;-147.65;100.00;57646.63;10497614;28;20045;-79
2023/09/18 02:52:44;;;;;;;21.60;13.93;;;;;;;-147.65;100.00;57646.63;10465863;27;20055;-80
2023/09/18 02:57:45;;;;;;;26.88;16.48;;;;;;;-147.65;100.00;57646.63;10468670;28;20064;-79
2023/09/18 03:02:45;;;;;;;21.02;13.60;;;;;;;-147.65;100.00;57646.63;10470722;28;20053;-79
2023/09/18 03:07:47;;;;;;;22.23;15.00;;;;;;;-147.65;100.00;57646.63;10500282;27;20090;-79
2023/09/18 03:12:48;;;;;;;30.58;15.13;;;;;;;-147.65;100.00;57646.63;10470441;27;20033;-78
2023/09/18 03:17:50;;;;;;;25.40;14.35;;;;;;;-147.65;100.00;57646.63;10472969;27;20496;-79
2023/09/18 03:22:51;;;;;;;22.02;12.60;;;;;;;-147.65;100.00;57646.63;10463037;27;20385;-79
2023/09/18 03:27:53;;;;;;;20.30;12.93;;;;;;;-147.65;100.00;57646.63;10476050;28;20037;-80
2023/09/18 03:32:53;;;;;;;22.95;14.13;;;;;;;-147.65;100.00;57646.63;10484110;28;20384;-80
2023/09/18 03:37:54;;;;;;;22.63;13.23;;;;;;;-147.65;100.00;57646.63;10449492;28;20064;-78
2023/09/18 03:42:55;;;;;;;28.15;13.20;;;;;;;-147.65;100.00;57646.63;10462719;28;20056;-78
2023/09/18 03:47:55;;;;;;;26.23;14.10;;;;;;;-147.65;100.00;57646.63;10493951;28;20065;-79
2023/09/18 03:52:56;;;;;;;20.27;11.32;;;;;;;-147.65;100.00;57646.63;10463278;27;20044;-79
2023/09/18 03:57:56;;;;;;;18.45;12.02;;;;;;;-147.65;100.00;57646.63;10459196;28;20064;-79
2023/09/18 04:02:57;;;;;;;37.40;12.98;;;;;;;-147.65;100.00;57646.63;10461610;28;20048;-79
2023/09/18 04:07:57;;;;;;;19.25;11.57;;;;;;;-147.65;100.00;57646.63;10461852;28;20120;-79
2023/09/18 04:12:58;;;;;;;20.75;10.98;;;;;;;-147.65;100.00;57646.63;10464706;28;20123;-79
2023/09/18 04:17:59;;;;;;;24.48;11.18;;;;;;;-147.65;100.00;57646.63;10475371;28;20041;-81
2023/09/18 04:23:22;;;;;;;25.02;13.15;;;;;;;-147.65;100.00;57646.63;10491104;28;20064;-81
2023/09/18 04:28:22;;;;;;;20.00;11.05;;;;;;;-147.65;100.00;57646.63;10450808;28;20549;-81
2023/09/18 04:33:23;;;;;;;22.63;10.95;;;;;;;-147.65;100.00;57646.63;10458034;28;20040;-80
2023/09/18 04:38:23;;;;;;;16.30;8.35;;;;;;;-147.65;100.00;57646.63;10468721;28;20407;-81
2023/09/18 04:43:24;;;;;;;16.25;10.13;;;;;;;-147.65;100.00;57646.63;10459436;28;20136;-80
2023/09/18 04:48:25;;;;;;;23.27;9.82;;;;;;;-147.65;100.00;57646.63;10475448;28;20049;-82
2023/09/18 04:53:27;;;;;;;27.70;11.07;;;;;;;-147.65;100.00;57646.63;10452711;28;20127;-82
2023/09/18 04:58:27;;;;;;;15.90;9.10;;;;;;;-147.65;100.00;57646.63;10476399;28;20029;-80
2023/09/18 05:03:29;;;;;;;18.55;9.02;;;;;;;-147.65;100.00;57646.63;10466662;28;20032;-80
2023/09/18 05:08:29;;;;;;;18.38;7.65;;;;;;;-147.65;100.00;57646.63;10429245;28;20075;-79
2023/09/18 05:13:30;;;;;;;13.38;7.22;;;;;;;-147.65;100.00;57646.63;10465721;28;20179;-78
2023/09/18 05:18:30;;;;;;;17.55;6.38;;;;;;;-147.65;100.00;57646.63;10465616;28;20060;-78
2023/09/18 05:23:31;;;;;;;11.30;5.28;;;;;;;-147.65;100.00;57646.63;10438980;28;20045;-79
2023/09/18 05:28:32;;;;;;;10.87;5.50;;;;;;;-147.65;100.00;57646.63;10449055;28;20076;-78
2023/09/18 05:33:33;;;;;;;14.85;4.72;;;;;;;-147.65;100.00;57646.63;10439821;28;20048;-81
2023/09/18 05:38:33;;;;;;;11.00;5.32;;;;;;;-147.65;100.00;57646.63;10447963;28;20040;-78
2023/09/18 05:43:35;;;;;;;14.75;5.00;;;;;;;-147.65;100.00;57646.63;10456166;28;20450;-77
2023/09/18 05:48:35;;;;;;;7.15;4.63;;;;;;;-147.65;100.00;57646.63;10455187;28;20040;-79
2023/09/18 05:53:37;;;;;;;10.25;5.18;;;;;;;-147.65;100.00;57646.63;10415737;28;20041;-77
2023/09/18 05:58:39;;;;;;;10.23;4.32;;;;;;;-147.65;100.00;57646.63;10441556;28;20487;-79
2023/09/18 06:03:39;;;;;;;8.77;5.17;;;;;;;-147.65;100.00;57646.63;10443362;28;20071;-78
2023/09/18 06:08:40;;;;;;;8.52;2.53;;;;;;;-147.65;100.00;57646.63;10460974;28;20033;-77
2023/09/18 06:13:40;;;;;;;7.10;2.88;;;;;;;-147.65;100.00;57646.63;10446654;28;20456;-82
2023/09/18 06:18:41;;;;;;;7.93;2.60;;;;;;;-147.65;100.00;57646.63;10459098;28;20049;-78
2023/09/18 06:23:42;;;;;;;8.77;2.72;;;;;;;-147.65;100.00;57646.63;10462289;28;20388;-83
2023/09/18 06:28:42;;;;;;;6.55;2.00;;;;;;;-147.65;100.00;57646.63;10467818;28;20132;-83
2023/09/18 06:33:43;;;;;;;7.47;2.85;;;;;;;-147.65;100.00;57646.63;10477834;28;20045;-80
2023/09/18 06:38:43;;;;;;;3.95;2.20;;;;;;;-147.65;100.00;57646.63;10404739;28;20375;-79
2023/09/18 06:43:44;;;;;;;5.75;1.88;;;;;;;-147.65;100.00;57646.63;10429235;28;21908;-83
2023/09/18 06:48:49;;;;;;;5.55;2.00;;;;;;;-147.65;100.00;57646.63;10436806;28;20044;-79
2023/09/18 06:53:49;;;;;;;5.88;2.55;;;;;;;-147.65;100.00;57646.63;10455043;28;20098;-79
2023/09/18 06:58:51;;;;;;;6.75;2.10;;;;;;;-147.65;100.00;57646.63;10455754;28;20110;-81
2023/09/18 07:03:51;;;;;;;4.10;2.17;;;;;;;-147.65;100.00;57646.63;10466415;28;20075;-83
2023/09/18 07:08:53;;;;;;;9.35;2.75;;;;;;;-147.65;100.00;57646.63;10472277;28;20107;-81
2023/09/18 07:13:53;;;;;;;4.33;1.43;;;;;;;-147.65;100.00;57646.63;10430261;28;20056;-79
2023/09/18 07:18:54;;;;;;;4.97;2.08;;;;;;;-147.65;100.00;57646.63;10449458;28;20065;-80
2023/09/18 07:23:54;;;;;;;4.22;1.58;;;;;;;-147.65;100.00;57646.63;10433048;28;20093;-81
2023/09/18 07:28:55;;;;;;;3.95;2.53;;;;;;;-147.65;100.00;57646.63;10462207;28;20102;-81
2023/09/18 07:33:55;;;;;;;7.22;3.15;;;;;;;-147.65;100.00;57646.63;10421604;28;20041;-80
2023/09/18 07:38:56;;;;;;;2.78;1.50;;;;;;;-147.65;100.00;57646.63;10478898;28;20108;-80
2023/09/18 07:43:58;;;;;;;5.53;1.55;;;;;;;-147.65;100.00;57646.63;10479106;28;20049;-78
2023/09/18 07:48:58;;;;;;;;;;;;;;;-147.65;100.00;57646.63;10446868;28;20106;-80
2023/09/18 07:53:59;;;;;;;4.33;1.53;;;;;;;-147.65;100.00;57646.63;10445633;28;19974;-78
2023/09/18 07:59:00;;;;;;;4.78;2.05;;;;;;;-147.65;100.00;57646.63;10446587;28;20304;-80
2023/09/18 08:04:00;;;;;;;4.13;2.28;;;;;;;-147.65;100.00;57646.63;10462063;28;20033;-79
2023/09/18 08:09:01;;;;;;;5.93;1.70;;;;;;;-147.65;100.00;57646.63;10446487;28;20493;-80
2023/09/18 08:14:02;;;;;;;8.85;2.75;;;;;;;-147.65;100.00;57646.63;10459873;28;20386;-78
2023/09/18 08:19:03;;;;;;;4.22;1.27;;;;;;;-147.65;100.00;57646.63;10445494;28;20049;-79
2023/09/18 08:24:04;;;;;;;4.28;1.48;;;;;;;-147.65;100.00;57646.63;10477351;28;20158;-79
2023/09/18 08:29:04;;;;;;;2.07;1.10;;;;;;;-147.65;100.00;57646.63;10445453;28;20037;-77
2023/09/18 08:34:05;;;;;;;3.60;1.95;;;;;;;-147.65;100.00;57646.63;10444698;28;20175;-80
2023/09/18 08:39:05;;;;;;;5.10;2.60;;;;;;;-147.65;100.00;57646.63;10444902;28;20086;-77
2023/09/18 08:44:06;;;;;;;2.53;1.33;;;;;;;-147.65;100.00;57646.63;10443664;28;20025;-77
2023/09/18 08:49:07;;;;;;;8.80;2.40;;;;;;;-147.65;100.00;57646.63;10442471;28;20042;-77
2023/09/18 08:54:08;;;;;;;5.00;1.40;;;;;;;-147.65;100.00;57646.63;10442469;28;20025;-77
2023/09/18 08:59:08;;;;;;;3.50;1.90;;;;;;;-147.65;100.00;57646.63;10476785;28;20502;-77
2023/09/18 09:04:09;;;;;;;12.20;1.73;;;;;;;-147.65;100.00;57646.63;10459230;28;20056;-79
2023/09/18 09:09:12;;;;;;;4.10;1.67;;;;;;;-147.65;100.00;57646.63;10441390;28;20041;-80
2023/09/18 09:14:18;;;;;;;4.93;2.95;;;;;;;-147.65;100.00;57646.63;10443037;28;20560;-80
2023/09/18 09:19:27;;;;;;;22.67;9.35;;;;;;;-147.65;100.00;57646.63;10458368;28;20128;-78
2023/09/18 09:24:41;;;;;;;4.95;1.67;;;;;;;-147.65;100.00;57646.63;10457279;28;20047;-77
2023/09/18 09:29:42;;;;;;;3.97;1.35;;;;;;;-147.65;100.00;57646.63;10473078;28;20520;-78
2023/09/18 09:34:43;;;;;;;13.13;4.57;;;;;;;-147.65;100.00;57646.63;10442384;28;20040;-76
2023/09/18 09:39:50;;;;;;;6.32;1.58;;;;;;;-147.65;100.00;57646.63;10474966;28;20091;-80
2023/09/18 09:45:04;;;;;;;3.97;1.52;;;;;;;-147.65;100.00;57646.63;10456961;28;20140;-78
2023/09/18 09:50:18;;;;;;;3.40;1.58;;;;;;;-147.65;100.00;57646.63;10457194;28;20048;-81
2023/09/18 09:55:25;;;;;;;6.40;1.63;;;;;;;-147.65;100.00;57646.63;10440253;28;20047;-81
2023/09/18 10:00:32;;;;;;;5.13;1.92;;;;;;;-147.65;100.00;57646.63;10473379;28;20386;-79
2023/09/18 10:05:35;;;;;;;5.43;2.17;;;;;;;-147.65;100.00;57646.63;10473285;28;20099;-80
2023/09/18 10:10:40;;;;;;;6.97;1.85;;;;;;;-147.65;100.00;57646.63;10456938;28;20029;-78
2023/09/18 10:15:43;;;;;;;7.00;1.85;;;;;;;-147.65;100.00;57646.63;10457040;28;20037;-81
2023/09/18 10:20:43;;;;;;;4.15;1.42;;;;;;;-147.65;100.00;57646.63;10456383;28;20422;-80
2023/09/18 10:25:44;;;;;;;4.27;1.33;;;;;;;-147.65;100.00;57646.63;10439420;28;20037;-81
2023/09/18 10:30:44;;;;;;;6.60;1.70;;;;;;;-147.65;100.00;57646.63;10456213;28;20041;-80
2023/09/18 10:35:46;;;;;;;127.80;71.33;;;;;;;-147.65;100.00;57646.63;10439949;28;20036;-83
2023/09/18 10:40:47;;;;;;;3.17;1.65;;;;;;;-147.65;100.00;57646.63;10446281;28;20049;-80
2023/09/18 10:45:48;;;;;;;6.40;1.88;;;;;;;-147.65;100.00;57646.63;10464040;28;20123;-81
2023/09/18 10:50:48;;;;;;;6.88;2.05;;;;;;;-147.65;100.00;57646.63;10464385;28;20562;-81
2023/09/18 10:55:49;;;;;;;0.73;0.73;;;;;;;-147.65;100.00;57646.63;10463216;28;20105;-82
2023/09/18 11:00:50;;;;;;;2.78;1.70;;;;;;;-147.65;100.00;57646.63;10448813;28;20045;-79
2023/09/18 11:06:07;;;;;;;2.40;1.47;;;;;;;-147.65;100.00;57646.63;10446877;28;20072;-79
2023/09/18 11:11:13;;;;;;;3.20;1.23;;;;;;;-147.65;100.00;57646.63;10448114;28;20114;-78
2023/09/18 11:16:19;;;;;;;3.53;2.17;;;;;;;-147.65;100.00;57646.63;10447918;28;20476;-79
2023/09/18 11:21:26;;;;;;;2.42;1.23;;;;;;;-147.65;100.00;57646.63;10447148;28;20048;-78
2023/09/18 11:26:34;;;;;;;37.40;5.35;;;;;;;-147.65;100.00;57646.63;10479829;28;20443;-78
2023/09/18 11:31:54;;;;;;;54.67;11.95;;;;;;;-147.65;100.00;57646.63;10446394;28;20358;-78
2023/09/18 11:36:54;;;;;;;4.10;1.83;;;;;;;-147.65;100.00;57646.63;10451449;28;20604;-77
2023/09/18 11:42:06;;;;;;;2.60;1.77;;;;;;;-147.65;100.00;57646.63;10450681;28;20086;-79
2023/09/18 11:47:07;;;;;;;192.35;33.00;;;;;;;-147.65;100.00;57646.63;10483429;28;20052;-78
2023/09/18 11:52:08;;;;;;;3.10;1.05;;;;;;;-147.65;100.00;57646.63;10436691;28;20486;-78
2023/09/18 11:57:08;;;;;;;0.20;0.20;;;;;;;-147.65;100.00;57646.63;10470437;28;20057;-78
2023/09/18 12:02:20;;;;;;;0.20;0.20;;;;;;;-147.65;100.00;57646.63;10447823;28;20080;-77
2023/09/18 12:07:20;;;;;;;;;;;;;;;-147.65;100.00;57646.63;10476448;28;20041;-79
2023/09/18 12:12:21;;;;;;;2.23;0.87;;;;;;;-147.65;100.00;57646.63;10451274;28;19924;-78
2023/09/18 12:17:21;;;;;;;1.27;0.77;;;;;;;-147.65;100.00;57646.63;10444694;28;20485;-79
2023/09/18 12:22:28;;;;;;;2.63;1.50;;;;;;;-147.65;100.00;57646.63;10467269;28;20048;-80
2023/09/18 12:27:29;;;;;;;1.05;0.95;;;;;;;-147.65;100.00;57646.63;10444747;28;20378;-78
2023/09/18 12:32:30;;;;;;;;;;;;;;;-147.65;100.00;57646.63;10432712;28;20206;-80
2023/09/18 12:37:40;;;;;;;1.03;0.63;;;;;;;-147.65;100.00;57646.63;10430504;28;20376;-81
2023/09/18 12:42:41;;;;;;;0.65;0.57;;;;;;;-147.65;100.00;57646.63;10411718;28;20515;-81
2023/09/18 12:47:41;;;;;;;2.07;1.03;;;;;;;-147.65;100.00;57646.63;10423167;28;20128;-80
2023/09/18 12:52:42;;;;;;;0.30;0.30;;;;;;;-147.65;100.00;57646.63;10448729;28;20072;-78
2023/09/18 12:57:42;;;;;;;1.43;0.57;;;;;;;-147.65;100.00;57646.63;10436266;28;20504;-77
2023/09/18 13:02:44;;;;;;;0.53;0.53;;;;;;;-147.65;100.00;57646.63;10432704;28;20029;-76
2023/09/18 13:07:50;;;;;;;0.85;0.77;;;;;;;-147.65;100.00;57646.63;10419376;28;20064;-77
2023/09/18 13:12:53;;;;;;;2.05;1.10;;;;;;;-147.65;100.00;57646.63;10457337;28;20508;-76
2023/09/18 13:17:54;;;;;;;5.47;2.40;;;;;;;-147.65;100.00;57646.63;10406475;28;20168;-75
2023/09/18 13:23:00;;;;;;;0.83;0.60;;;;;;;-147.65;100.00;57646.63;10416629;28;20084;-76
2023/09/18 13:28:03;;;;;;;1.30;1.13;;;;;;;-147.65;100.00;57646.63;10438784;28;20041;-80
2023/09/18 13:33:07;;;;;;;0.82;0.55;;;;;;;-147.65;100.00;57646.63;10425709;28;20041;-78
2023/09/18 13:38:08;;;;;;;0.40;0.40;;;;;;;-147.65;100.00;57646.63;10457319;28;20044;-78
2023/09/18 13:43:09;;;;;;;0.50;0.40;;;;;;;-147.65;100.00;57646.63;10441556;28;20516;-77
2023/09/18 13:48:09;;;;;;;0.50;0.30;;;;;;;-147.65;100.00;57646.63;10459655;28;20052;-76
2023/09/18 13:53:10;;;;;;;0.67;0.43;;;;;;;-147.65;100.00;57646.63;10418193;28;20068;-77
2023/09/18 13:58:10;;;;;;;1.30;0.73;;;;;;;-147.65;100.00;57646.63;10444993;28;20045;-77
2023/09/18 14:03:15;;;;;;;0.17;0.17;;;;;;;-147.65;100.00;57646.63;10421543;28;20140;-76
2023/09/18 14:08:17;;;;;;;0.20;0.20;;;;;;;-147.65;100.00;57646.63;10412240;28;20045;-76
2023/09/18 14:13:18;;;;;;;6.43;1.10;;;;;;;-147.65;100.00;57646.63;10452198;28;20037;-78
2023/09/18 14:18:18;;;;;;;2.00;1.07;;;;;;;-147.65;100.00;57646.63;10415892;28;20042;-77
2023/09/18 14:23:18;;;;;;;0.30;0.30;;;;;;;-147.65;100.00;57646.63;10432424;28;20048;-78
2023/09/18 14:28:20;;;;;;;2.20;1.70;;;;;;;-147.65;100.00;57646.63;10447519;28;20473;-78
2023/09/18 14:33:20;;;;;;;0.45;0.30;;;;;;;-147.65;100.00;57646.63;10437799;28;20041;-76
2023/09/18 14:38:21;;;;;;;5.63;2.13;;;;;;;-147.65;100.00;57646.63;10482572;28;20119;-77
2023/09/18 14:43:21;;;;;;;4.07;1.43;;;;;;;-147.65;100.00;57646.63;10438275;28;20140;-77
2023/09/18 14:48:22;;;;;;;3.70;1.57;;;;;;;-147.65;100.00;57646.63;10432878;28;20040;-78
2023/09/18 14:53:22;;;;;;;7.33;5.33;;;;;;;-147.65;100.00;57646.63;10424925;28;20037;-77
2023/09/18 14:58:23;;;;;;;5.27;1.50;;;;;;;-147.65;100.00;57646.63;10427113;28;20099;-80
2023/09/18 15:03:24;;;;;;;4.33;1.70;;;;;;;-147.65;100.00;57646.63;10461936;28;20488;-77
2023/09/18 15:08:25;;;;;;;3.80;1.20;;;;;;;-147.65;100.00;57646.63;10430334;28;20045;-78
2023/09/18 15:13:25;;;;;;;8.60;2.07;;;;;;;-147.65;100.00;57646.63;10439980;28;20029;-78
2023/09/18 15:18:26;;;;;;;2.97;1.73;;;;;;;-147.65;100.00;57646.63;10467419;28;20049;-80
2023/09/18 15:23:27;;;;;;;2.63;1.87;;;;;;;-147.65;100.00;57646.63;10435263;28;20053;-80
2023/09/18 15:28:29;;;;;;;6.90;1.88;;;;;;;-147.65;100.00;57646.63;10443944;28;20052;-81
2023/09/18 15:33:30;;;;;;;3.63;1.70;;;;;;;-147.65;100.00;57646.63;10448865;28;20418;-80
2023/09/18 15:38:30;;;;;;;7.07;1.80;;;;;;;-147.65;100.00;57646.63;10440102;28;20048;-80
2023/09/18 15:43:33;;;;;;;1999.90;999.90;;;;;;;-147.65;100.00;57646.63;10468616;28;20131;-78
2023/09/18 15:48:33;;;;;;;1999.90;999.90;;;;;;;-147.65;100.00;57646.63;10464625;28;20194;-80
2023/09/18 15:53:34;;;;;;;1999.90;999.90;;;;;;;-147.65;100.00;57646.63;10449765;28;20090;-79
2023/09/18 15:58:35;;;;;;;1999.90;999.90;;;;;;;-147.65;100.00;57646.63;10447087;28;20048;-78
2023/09/18 16:03:36;;;;;;;1999.90;999.90;;;;;;;-147.65;100.00;57646.63;10424021;28;20485;-82
2023/09/18 16:08:37;;;;;;;1999.90;999.90;;;;;;;-147.65;100.00;57646.63;10447354;28;20112;-79
2023/09/18 16:13:37;;;;;;;1999.90;999.90;;;;;;;-147.65;100.00;57646.63;10428033;28;20068;-80
2023/09/18 16:18:38;;;;;;;1999.90;999.90;;;;;;;-147.65;100.00;57646.63;10426023;28;20052;-79
2023/09/18 16:23:39;;;;;;;1999.90;999.90;;;;;;;-147.65;100.00;57646.63;10451881;28;20044;-77
2023/09/18 16:28:39;;;;;;;1999.90;999.90;;;;;;;-147.65;100.00;57646.63;10445894;28;20044;-77
2023/09/18 16:33:40;;;;;;;1999.90;999.90;;;;;;;-147.65;100.00;57646.63;10442500;28;20040;-78
2023/09/18 16:38:41;;;;;;;9.88;6.35;;;;;;;-147.65;100.00;57646.63;10448289;28;20120;-76
2023/09/18 16:43:42;;;;;;;1999.90;999.90;;;;;;;-147.65;100.00;57646.63;10443956;28;20139;-77
2023/09/18 16:48:43;;;;;;;6.97;4.28;;;;;;;-147.65;100.00;57646.63;10450744;28;20177;-77
2023/09/18 16:53:43;;;;;;;4.57;2.90;;;;;;;-147.65;100.00;57646.63;10450315;28;20048;-75
2023/09/18 16:58:46;;;;;;;4.38;2.88;;;;;;;-147.65;100.00;57646.63;10458282;28;20037;-75
2023/09/18 17:03:46;;;;;;;14.88;4.30;;;;;;;-147.65;100.00;57646.63;10442740;28;20064;-74
2023/09/18 17:08:48;;;;;;;7.70;3.70;;;;;;;-147.65;100.00;57646.63;10423242;28;20120;-75
2023/09/18 17:13:49;;;;;;;7.20;3.88;;;;;;;-147.65;100.00;57646.63;10466049;28;20388;-75
2023/09/18 17:18:55;;;;;;;8.05;4.28;;;;;;;-147.65;100.00;57646.63;10428615;28;20037;-76
2023/09/18 17:23:56;;;;;;;6.60;4.28;;;;;;;-147.65;100.00;57646.63;10458982;28;20404;-75
2023/09/18 17:28:56;;;;;;;8.10;3.95;;;;;;;-147.65;100.00;57646.63;10437994;28;20045;-76
2023/09/18 17:33:57;;;;;;;4.95;3.70;;;;;;;-147.65;100.00;57646.63;10458890;28;20037;-76
2023/09/18 17:38:57;;;;;;;5.78;3.20;;;;;;;-147.65;100.00;57646.63;10447943;28;20127;-76
2023/09/18 17:43:58;;;;;;;8.70;4.43;;;;;;;-147.65;100.00;57646.63;10458922;28;20043;-76
2023/09/18 17:48:58;;;;;;;8.05;4.55;;;;;;;-147.65;100.00;57646.63;10432679;28;20047;-78
2023/09/18 17:53:59;;;;;;;8.40;3.03;;;;;;;-147.65;100.00;57646.63;10453394;28;20033;-75
2023/09/18 17:59:00;;;;;;;7.38;3.97;;;;;;;-147.65;100.00;57646.63;10469521;28;20041;-75
2023/09/18 18:04:00;;;;;;;3.53;2.05;;;;;;;-147.65;100.00;57646.63;10443418;28;20179;-77
2023/09/18 18:09:04;;;;;;;4.70;3.45;;;;;;;-147.65;100.00;57646.63;10415079;28;20398;-76
2023/09/18 18:14:07;;;;;;;7.90;4.65;;;;;;;-147.65;100.00;57646.63;10401866;28;20409;-76
2023/09/18 18:19:08;;;;;;;7.32;3.00;;;;;;;-147.65;100.00;57646.63;10397609;28;20432;-77
2023/09/18 18:24:09;;;;;;;6.55;3.63;;;;;;;-147.65;100.00;57646.63;10400942;28;20072;-77
2023/09/18 18:29:09;;;;;;;5.85;3.67;;;;;;;-147.65;100.00;57646.63;10394031;28;20041;-77
2023/09/18 18:34:10;;;;;;;8.13;3.90;;;;;;;-147.65;100.00;57646.63;10407362;28;20041;-76
2023/09/18 18:39:11;;;;;;;6.55;3.33;;;;;;;-147.65;100.00;57646.63;10408651;28;20045;-75
2023/09/18 18:44:12;;;;;;;5.80;2.80;;;;;;;-147.65;100.00;57646.63;10454059;28;20040;-76
2023/09/18 18:49:12;;;;;;;7.85;4.20;;;;;;;-147.65;100.00;57646.63;10457326;28;20118;-76
2023/09/18 18:54:13;;;;;;;4.80;3.17;;;;;;;-147.65;100.00;57646.63;10419973;28;20095;-77
2023/09/18 18:59:13;;;;;;;5.88;3.65;;;;;;;-147.65;100.00;57646.63;10458439;28;20090;-76
2023/09/18 19:04:14;;;;;;;5.35;3.60;;;;;;;-147.65;100.00;57646.63;10456204;28;20912;-77
2023/09/18 19:09:17;;;;;;;8.18;3.90;;;;;;;-147.65;100.00;57646.63;10460841;28;20033;-77
2023/09/18 19:14:18;;;;;;;6.35;2.83;;;;;;;-147.65;100.00;57646.63;10459740;28;20029;-76
2023/09/18 19:19:18;;;;;;;6.50;3.40;;;;;;;-147.65;100.00;57646.63;10407119;28;20046;-76
2023/09/18 19:24:20;;;;;;;5.45;3.50;;;;;;;-147.65;100.00;57646.63;10437689;28;20113;-77
2023/09/18 19:29:20;;;;;;;6.75;2.97;;;;;;;-147.65;100.00;57646.63;10407312;28;20053;-77
2023/09/18 19:34:21;;;;;;;5.95;2.60;;;;;;;-147.65;100.00;57646.63;10445126;28;20056;-77
2023/09/18 19:39:22;;;;;;;5.93;3.05;;;;;;;-147.65;100.00;57646.63;10479624;28;20103;-77
2023/09/18 19:44:24;;;;;;;7.13;3.97;;;;;;;-147.65;100.00;57646.63;10462490;28;20065;-77
2023/09/18 19:49:25;;;;;;;6.35;3.17;;;;;;;-147.65;100.00;57646.63;10462760;28;20520;-76
2023/09/18 19:54:26;;;;;;;5.97;3.75;;;;;;;-147.65;100.00;57646.63;10446771;28;20041;-76
2023/09/18 19:59:27;;;;;;;8.95;3.97;;;;;;;-147.65;100.00;57646.63;10478761;28;20130;-77
2023/09/18 20:04:28;;;;;;;6.45;3.25;;;;;;;-147.65;100.00;57646.63;10493589;28;20119;-76
2023/09/18 20:09:29;;;;;;;5.63;2.83;;;;;;;-147.65;100.00;57646.63;10466772;28;20385;-77
2023/09/18 20:14:29;;;;;;;6.30;3.15;;;;;;;-147.65;100.00;57646.63;10461302;28;20283;-77
2023/09/18 20:19:30;;;;;;;6.70;3.40;;;;;;;-147.65;100.00;57646.63;10480407;28;20123;-76
2023/09/18 20:24:31;;;;;;;5.65;3.05;;;;;;;-147.65;100.00;57646.63;10429679;28;20040;-78
2023/09/18 20:29:31;;;;;;;5.75;3.25;;;;;;;-147.65;100.00;57646.63;10454554;28;20035;-77
2023/09/18 20:34:32;;;;;;;9.75;4.00;;;;;;;-147.65;100.00;57646.63;10483999;28;20114;-77
2023/09/18 20:39:32;;;;;;;10.68;3.83;;;;;;;-147.65;100.00;57646.63;10462279;28;20543;-78
2023/09/18 20:44:33;;;;;;;6.95;4.07;;;;;;;-147.65;100.00;57646.63;10481271;28;20124;-78
2023/09/18 20:49:34;;;;;;;7.18;2.83;;;;;;;-147.65;100.00;57646.63;10439912;28;20448;-79
2023/09/18 20:54:34;;;;;;;7.35;3.17;;;;;;;-147.65;100.00;57646.63;10431638;28;20183;-79
2023/09/18 20:59:35;;;;;;;7.43;2.75;;;;;;;-147.65;100.00;57646.63;10462625;28;20507;-78
2023/09/18 21:04:36;;;;;;;25.25;3.35;;;;;;;-147.65;100.00;57646.63;10445359;28;20170;-77
2023/09/18 21:09:39;;;;;;;8.70;3.23;;;;;;;-147.65;100.00;57646.63;10435329;28;20482;-76
2023/09/18 21:14:40;;;;;;;5.80;2.50;;;;;;;-147.65;100.00;57646.63;10434382;28;20378;-77
2023/09/18 21:19:40;;;;;;;6.60;2.35;;;;;;;-147.65;100.00;57646.63;10441177;28;20060;-78
2023/09/18 21:24:44;;;;;;;14.00;4.20;;;;;;;-147.65;100.00;57646.63;10444230;28;20033;-78
2023/09/18 21:29:44;;;;;;;9.02;4.60;;;;;;;-147.65;100.00;57646.63;10419247;28;20064;-77
2023/09/18 21:34:45;;;;;;;7.65;3.45;;;;;;;-147.65;100.00;57646.63;10401987;28;20136;-77
2023/09/18 21:39:46;;;;;;;7.95;3.03;;;;;;;-147.65;100.00;57646.63;10424907;28;20542;-76
2023/09/18 21:44:47;;;;;;;11.57;4.87;;;;;;;-147.65;100.00;57646.63;10449431;28;20063;-77
2023/09/18 21:49:47;;;;;;;8.90;3.53;;;;;;;-147.65;100.00;57646.63;10455280;28;20040;-77
2023/09/18 21:54:48;;;;;;;17.63;3.95;;;;;;;-147.65;100.00;57646.63;10428968;28;20068;-77
2023/09/18 21:59:48;;;;;;;18.33;3.35;;;;;;;-147.65;100.00;57646.63;10468661;28;20068;-78
2023/09/18 22:04:50;;;;;;;9.95;3.72;;;;;;;-147.65;100.00;57646.63;10473074;28;20435;-78
2023/09/18 22:09:55;;;;;;;8.30;3.13;;;;;;;-147.65;100.00;57646.63;10452396;28;20044;-76
2023/09/18 22:14:58;;;;;;;11.88;3.08;;;;;;;-147.65;100.00;57646.63;10440316;28;20048;-78
2023/09/18 22:19:58;;;;;;;;;;;;;;;-147.65;100.00;57646.63;10432590;28;20075;-79
2023/09/18 22:24:59;;;;;;;11.10;3.60;;;;;;;-147.65;100.00;57646.63;10445753;28;20004;-77